sensor_id;sensor_type;location;lat;lon;timestamp;pressure;altitude;pressure_sealevel;temperature;humidity
17362;BME280;8798;51.938;4.348;2024-03-02T00:01:12;99323.91;;;7.72;96.74
17362;BME280;8798;51.938;4.348;2024-03-02T00:03:42;99319.75;;;7.69;97.13
17362;BME280;8798;51.938;4.348;2024-03-02T00:06:10;99317.22;;;7.68;97.35
17362;BME280;8798;51.938;4.348;2024-03-02T00:08:39;99308.53;;;7.66;96.78
17362;BME280;8798;51.938;4.348;2024-03-02T00:11:07;99315.06;;;7.63;97.00
17362;BME280;8798;51.938;4.348;2024-03-02T00:13:37;99309.91;;;7.62;96.39
17362;BME280;8798;51.938;4.348;2024-03-02T00:16:07;99303.06;;;7.59;96.94
17362;BME280;8798;51.938;4.348;2024-03-02T00:18:36;99304.22;;;7.57;96.79
17362;BME280;8798;51.938;4.348;2024-03-02T00:21:06;99286.88;;;7.52;97.19
17362;BME280;8798;51.938;4.348;2024-03-02T00:23:37;99288.88;;;7.50;96.80
17362;BME280;8798;51.938;4.348;2024-03-02T00:26:05;99286.38;;;7.49;97.16
17362;BME280;8798;51.938;4.348;2024-03-02T00:28:36;99281.38;;;7.46;96.29
17362;BME280;8798;51.938;4.348;2024-03-02T00:31:07;99277.22;;;7.43;96.68
17362;BME280;8798;51.938;4.348;2024-03-02T00:33:37;99275.56;;;7.42;97.05
17362;BME280;8798;51.938;4.348;2024-03-02T00:36:07;99286.41;;;7.41;96.96
17362;BME280;8798;51.938;4.348;2024-03-02T00:38:44;99274.22;;;7.38;96.18
17362;BME280;8798;51.938;4.348;2024-03-02T00:41:19;99277.03;;;7.37;96.90
17362;BME280;8798;51.938;4.348;2024-03-02T00:43:56;99284.22;;;7.36;96.92
17362;BME280;8798;51.938;4.348;2024-03-02T00:46:34;99287.09;;;7.35;97.27
17362;BME280;8798;51.938;4.348;2024-03-02T00:49:03;99280.41;;;7.30;96.94
17362;BME280;8798;51.938;4.348;2024-03-02T00:51:33;99275.06;;;7.30;97.05
17362;BME280;8798;51.938;4.348;2024-03-02T00:54:04;99289.44;;;7.29;96.29
17362;BME280;8798;51.938;4.348;2024-03-02T00:56:33;99293.75;;;7.30;96.69
17362;BME280;8798;51.938;4.348;2024-03-02T00:59:02;99305.28;;;7.31;96.47
17362;BME280;8798;51.938;4.348;2024-03-02T01:01:32;99295.75;;;7.28;96.74
17362;BME280;8798;51.938;4.348;2024-03-02T01:04:00;99298.59;;;7.27;96.57
17362;BME280;8798;51.938;4.348;2024-03-02T01:06:28;99277.56;;;7.24;96.81
17362;BME280;8798;51.938;4.348;2024-03-02T01:08:56;99285.09;;;7.20;97.17
17362;BME280;8798;51.938;4.348;2024-03-02T01:11:30;99281.78;;;7.18;97.10
17362;BME280;8798;51.938;4.348;2024-03-02T01:13:58;99290.59;;;7.19;97.26
17362;BME280;8798;51.938;4.348;2024-03-02T01:16:26;99297.63;;;7.20;97.29
17362;BME280;8798;51.938;4.348;2024-03-02T01:18:55;99297.78;;;7.18;96.63
17362;BME280;8798;51.938;4.348;2024-03-02T01:21:24;99304.16;;;7.17;96.34
17362;BME280;8798;51.938;4.348;2024-03-02T01:23:52;99305.94;;;7.17;96.75
17362;BME280;8798;51.938;4.348;2024-03-02T01:26:20;99315.66;;;7.18;96.72
17362;BME280;8798;51.938;4.348;2024-03-02T01:28:48;99327.84;;;7.20;96.81
17362;BME280;8798;51.938;4.348;2024-03-02T01:31:16;99332.34;;;7.20;96.68
17362;BME280;8798;51.938;4.348;2024-03-02T01:33:44;99343.84;;;7.20;96.59
17362;BME280;8798;51.938;4.348;2024-03-02T01:36:14;99346.53;;;7.20;97.38
17362;BME280;8798;51.938;4.348;2024-03-02T01:38:50;99347.50;;;7.19;96.25
17362;BME280;8798;51.938;4.348;2024-03-02T01:41:18;99344.00;;;7.19;96.89
17362;BME280;8798;51.938;4.348;2024-03-02T01:43:46;99339.84;;;7.16;96.58
17362;BME280;8798;51.938;4.348;2024-03-02T01:46:14;99344.69;;;7.13;97.07
17362;BME280;8798;51.938;4.348;2024-03-02T01:48:42;99337.84;;;7.10;96.97
17362;BME280;8798;51.938;4.348;2024-03-02T01:51:10;99342.19;;;7.11;96.75
17362;BME280;8798;51.938;4.348;2024-03-02T01:53:47;99351.84;;;7.12;96.66
17362;BME280;8798;51.938;4.348;2024-03-02T01:56:15;99358.03;;;7.13;97.32
17362;BME280;8798;51.938;4.348;2024-03-02T01:58:44;99378.06;;;7.17;96.95
17362;BME280;8798;51.938;4.348;2024-03-02T02:01:12;99393.09;;;7.18;97.01
17362;BME280;8798;51.938;4.348;2024-03-02T02:03:40;99406.25;;;7.19;97.30
17362;BME280;8798;51.938;4.348;2024-03-02T02:06:08;99413.09;;;7.22;96.46
17362;BME280;8798;51.938;4.348;2024-03-02T02:08:36;99425.47;;;7.23;96.52
17362;BME280;8798;51.938;4.348;2024-03-02T02:11:14;99441.16;;;7.26;96.96
17362;BME280;8798;51.938;4.348;2024-03-02T02:13:43;99458.69;;;7.28;96.59
17362;BME280;8798;51.938;4.348;2024-03-02T02:16:11;99461.34;;;7.28;96.73
17362;BME280;8798;51.938;4.348;2024-03-02T02:18:39;99453.50;;;7.27;96.28
17362;BME280;8798;51.938;4.348;2024-03-02T02:21:07;99464.16;;;7.27;96.71
17362;BME280;8798;51.938;4.348;2024-03-02T02:23:37;99466.00;;;7.26;97.13
17362;BME280;8798;51.938;4.348;2024-03-02T02:26:05;99476.69;;;7.26;96.62
17362;BME280;8798;51.938;4.348;2024-03-02T02:28:34;99482.03;;;7.26;97.00
17362;BME280;8798;51.938;4.348;2024-03-02T02:31:02;99473.19;;;7.26;96.77
17362;BME280;8798;51.938;4.348;2024-03-02T02:33:30;99476.03;;;7.24;97.38
17362;BME280;8798;51.938;4.348;2024-03-02T02:35:59;99475.19;;;7.24;96.03
17362;BME280;8798;51.938;4.348;2024-03-02T02:38:27;99486.72;;;7.24;96.44
17362;BME280;8798;51.938;4.348;2024-03-02T02:40:56;99478.19;;;7.21;96.74
17362;BME280;8798;51.938;4.348;2024-03-02T02:43:24;99471.34;;;7.18;97.06
17362;BME280;8798;51.938;4.348;2024-03-02T02:45:52;99472.19;;;7.19;96.57
17362;BME280;8798;51.938;4.348;2024-03-02T02:48:28;99477.53;;;7.19;96.99
17362;BME280;8798;51.938;4.348;2024-03-02T02:50:56;99478.53;;;7.18;96.60
17362;BME280;8798;51.938;4.348;2024-03-02T02:53:24;99481.22;;;7.18;97.30
17362;BME280;8798;51.938;4.348;2024-03-02T02:55:52;99495.38;;;7.18;96.77
17362;BME280;8798;51.938;4.348;2024-03-02T02:58:22;99504.91;;;7.21;96.85
17362;BME280;8798;51.938;4.348;2024-03-02T03:00:50;99518.94;;;7.23;96.70
17362;BME280;8798;51.938;4.348;2024-03-02T03:03:18;99528.59;;;7.24;96.53
17362;BME280;8798;51.938;4.348;2024-03-02T03:05:53;99541.81;;;7.25;96.85
17362;BME280;8798;51.938;4.348;2024-03-02T03:08:21;99547.81;;;7.27;96.32
17362;BME280;8798;51.938;4.348;2024-03-02T03:10:51;99560.16;;;7.28;97.29
17362;BME280;8798;51.938;4.348;2024-03-02T03:13:19;99566.19;;;7.30;97.31
17362;BME280;8798;51.938;4.348;2024-03-02T03:15:48;99581.06;;;7.33;96.34
17362;BME280;8798;51.938;4.348;2024-03-02T03:18:16;99586.25;;;7.35;97.35
17362;BME280;8798;51.938;4.348;2024-03-02T03:20:46;99599.25;;;7.38;96.65
17362;BME280;8798;51.938;4.348;2024-03-02T03:23:16;99614.13;;;7.40;96.75
17362;BME280;8798;51.938;4.348;2024-03-02T03:25:44;99622.97;;;7.41;97.44
17362;BME280;8798;51.938;4.348;2024-03-02T03:28:12;99631.66;;;7.43;96.06
17362;BME280;8798;51.938;4.348;2024-03-02T03:30:40;99629.16;;;7.41;96.38
17362;BME280;8798;51.938;4.348;2024-03-02T03:33:10;99645.03;;;7.43;97.00
17362;BME280;8798;51.938;4.348;2024-03-02T03:35:38;99636.88;;;7.44;97.05
17362;BME280;8798;51.938;4.348;2024-03-02T03:38:06;99648.38;;;7.45;97.20
17362;BME280;8798;51.938;4.348;2024-03-02T03:40:34;99658.88;;;7.46;96.88
17362;BME280;8798;51.938;4.348;2024-03-02T03:43:02;99663.25;;;7.47;97.43
17362;BME280;8798;51.938;4.348;2024-03-02T03:45:30;99671.94;;;7.49;97.40
17362;BME280;8798;51.938;4.348;2024-03-02T03:47:59;99682.44;;;7.51;97.04
17362;BME280;8798;51.938;4.348;2024-03-02T03:50:29;99683.47;;;7.50;96.75
17362;BME280;8798;51.938;4.348;2024-03-02T03:52:57;99672.94;;;7.48;97.00
17362;BME280;8798;51.938;4.348;2024-03-02T03:55:25;99681.78;;;7.49;96.34
17362;BME280;8798;51.938;4.348;2024-03-02T03:57:53;99675.78;;;7.47;97.28
17362;BME280;8798;51.938;4.348;2024-03-02T04:00:21;99660.22;;;7.42;96.38
17362;BME280;8798;51.938;4.348;2024-03-02T04:02:49;99651.53;;;7.40;96.88
17362;BME280;8798;51.938;4.348;2024-03-02T04:05:17;99650.03;;;7.38;96.96
17362;BME280;8798;51.938;4.348;2024-03-02T04:07:46;99649.19;;;7.37;96.97
17362;BME280;8798;51.938;4.348;2024-03-02T04:10:15;99644.81;;;7.36;97.13
17362;BME280;8798;51.938;4.348;2024-03-02T04:12:43;99644.00;;;7.36;97.09
17362;BME280;8798;51.938;4.348;2024-03-02T04:15:11;99640.66;;;7.33;96.76
17362;BME280;8798;51.938;4.348;2024-03-02T04:17:39;99626.59;;;7.31;97.08
17362;BME280;8798;51.938;4.348;2024-03-02T04:20:08;99639.13;;;7.31;96.78
17362;BME280;8798;51.938;4.348;2024-03-02T04:22:39;99630.28;;;7.30;96.26
17362;BME280;8798;51.938;4.348;2024-03-02T04:25:09;99627.94;;;7.27;97.13
17362;BME280;8798;51.938;4.348;2024-03-02T04:27:37;99618.25;;;7.26;97.18
17362;BME280;8798;51.938;4.348;2024-03-02T04:30:06;99630.78;;;7.26;97.19
17362;BME280;8798;51.938;4.348;2024-03-02T04:32:34;99626.44;;;7.25;96.87
17362;BME280;8798;51.938;4.348;2024-03-02T04:35:03;99635.97;;;7.27;97.06
17362;BME280;8798;51.938;4.348;2024-03-02T04:37:33;99642.97;;;7.28;97.02
17362;BME280;8798;51.938;4.348;2024-03-02T04:40:01;99657.00;;;7.30;97.16
17362;BME280;8798;51.938;4.348;2024-03-02T04:42:30;99662.19;;;7.32;97.13
17362;BME280;8798;51.938;4.348;2024-03-02T04:44:58;99677.22;;;7.33;97.30
17362;BME280;8798;51.938;4.348;2024-03-02T04:47:26;99683.06;;;7.37;96.88
17362;BME280;8798;51.938;4.348;2024-03-02T04:49:55;99691.06;;;7.37;96.52
17362;BME280;8798;51.938;4.348;2024-03-02T04:52:23;99704.13;;;7.40;96.88
17362;BME280;8798;51.938;4.348;2024-03-02T04:54:51;99706.81;;;7.40;97.47
17362;BME280;8798;51.938;4.348;2024-03-02T04:57:47;99700.59;;;7.39;97.27
17362;BME280;8798;51.938;4.348;2024-03-02T05:00:17;99704.13;;;7.40;96.81
17362;BME280;8798;51.938;4.348;2024-03-02T05:02:46;99708.59;;;7.39;97.33
17362;BME280;8798;51.938;4.348;2024-03-02T05:05:14;99716.63;;;7.39;97.24
17362;BME280;8798;51.938;4.348;2024-03-02T05:07:50;99714.81;;;7.40;96.68
17362;BME280;8798;51.938;4.348;2024-03-02T05:10:18;99707.09;;;7.37;96.44
17362;BME280;8798;51.938;4.348;2024-03-02T05:12:47;99699.09;;;7.37;97.23
17362;BME280;8798;51.938;4.348;2024-03-02T05:15:24;99715.09;;;7.37;96.70
17362;BME280;8798;51.938;4.348;2024-03-02T05:17:52;99711.59;;;7.36;97.22
17362;BME280;8798;51.938;4.348;2024-03-02T05:20:21;99706.44;;;7.35;96.43
17362;BME280;8798;51.938;4.348;2024-03-02T05:22:49;99702.06;;;7.33;96.57
17362;BME280;8798;51.938;4.348;2024-03-02T05:25:17;99703.09;;;7.32;97.24
17362;BME280;8798;51.938;4.348;2024-03-02T05:27:45;99699.75;;;7.30;96.68
17362;BME280;8798;51.938;4.348;2024-03-02T05:30:15;99692.06;;;7.27;97.02
17362;BME280;8798;51.938;4.348;2024-03-02T05:32:43;99692.88;;;7.28;97.01
17362;BME280;8798;51.938;4.348;2024-03-02T05:35:11;99691.38;;;7.25;96.85
17362;BME280;8798;51.938;4.348;2024-03-02T05:37:40;99682.66;;;7.23;96.48
17362;BME280;8798;51.938;4.348;2024-03-02T05:40:12;99668.63;;;7.21;96.60
17362;BME280;8798;51.938;4.348;2024-03-02T05:42:40;99669.66;;;7.20;97.20
17362;BME280;8798;51.938;4.348;2024-03-02T05:45:09;99667.13;;;7.19;97.17
17362;BME280;8798;51.938;4.348;2024-03-02T05:47:39;99675.97;;;7.19;97.02
17362;BME280;8798;51.938;4.348;2024-03-02T05:50:07;99681.16;;;7.21;96.57
17362;BME280;8798;51.938;4.348;2024-03-02T05:52:36;99691.84;;;7.21;96.77
17362;BME280;8798;51.938;4.348;2024-03-02T05:55:04;99685.50;;;7.22;96.82
17362;BME280;8798;51.938;4.348;2024-03-02T05:57:38;99700.69;;;7.21;96.77
17362;BME280;8798;51.938;4.348;2024-03-02T06:00:22;99691.97;;;7.19;96.83
17362;BME280;8798;51.938;4.348;2024-03-02T06:02:51;99699.84;;;7.21;97.08
17362;BME280;8798;51.938;4.348;2024-03-02T06:05:20;99705.88;;;7.23;96.83
17362;BME280;8798;51.938;4.348;2024-03-02T06:07:48;99720.06;;;7.23;96.48
17362;BME280;8798;51.938;4.348;2024-03-02T06:10:16;99718.22;;;7.24;96.86
17362;BME280;8798;51.938;4.348;2024-03-02T06:12:44;99712.19;;;7.22;96.62
17362;BME280;8798;51.938;4.348;2024-03-02T06:15:13;99712.19;;;7.22;97.26
17362;BME280;8798;51.938;4.348;2024-03-02T06:17:40;99714.03;;;7.21;97.48
17362;BME280;8798;51.938;4.348;2024-03-02T06:20:13;99723.75;;;7.22;97.07
17362;BME280;8798;51.938;4.348;2024-03-02T06:22:43;99727.25;;;7.23;96.89
17362;BME280;8798;51.938;4.348;2024-03-02T06:25:12;99731.56;;;7.24;96.79
17362;BME280;8798;51.938;4.348;2024-03-02T06:27:43;99732.41;;;7.24;96.63
17362;BME280;8798;51.938;4.348;2024-03-02T06:30:14;99736.09;;;7.23;97.37
17362;BME280;8798;51.938;4.348;2024-03-02T06:32:42;99726.41;;;7.22;96.36
17362;BME280;8798;51.938;4.348;2024-03-02T06:35:14;99736.22;;;7.22;96.36
17362;BME280;8798;51.938;4.348;2024-03-02T06:37:42;99727.56;;;7.20;97.41
17362;BME280;8798;51.938;4.348;2024-03-02T06:40:11;99737.38;;;7.19;97.07
17362;BME280;8798;51.938;4.348;2024-03-02T06:42:39;99735.56;;;7.20;96.59
17362;BME280;8798;51.938;4.348;2024-03-02T06:45:07;99741.91;;;7.19;97.02
17362;BME280;8798;51.938;4.348;2024-03-02T06:47:35;99729.38;;;7.19;97.46
17362;BME280;8798;51.938;4.348;2024-03-02T06:50:04;99723.38;;;7.17;96.63
17362;BME280;8798;51.938;4.348;2024-03-02T06:52:35;99728.88;;;7.16;97.55
17362;BME280;8798;51.938;4.348;2024-03-02T06:55:03;99723.66;;;7.14;96.65
17362;BME280;8798;51.938;4.348;2024-03-02T06:57:32;99727.19;;;7.15;96.94
17362;BME280;8798;51.938;4.348;2024-03-02T07:00:00;99729.88;;;7.15;97.56
17362;BME280;8798;51.938;4.348;2024-03-02T07:02:31;99732.53;;;7.15;96.66
17362;BME280;8798;51.938;4.348;2024-03-02T07:04:59;99726.53;;;7.13;97.36
17362;BME280;8798;51.938;4.348;2024-03-02T07:07:27;99728.31;;;7.12;96.53
17362;BME280;8798;51.938;4.348;2024-03-02T07:09:57;99734.53;;;7.13;97.54
17362;BME280;8798;51.938;4.348;2024-03-02T07:12:26;99737.03;;;7.14;97.28
17362;BME280;8798;51.938;4.348;2024-03-02T07:14:54;99747.69;;;7.14;97.29
17362;BME280;8798;51.938;4.348;2024-03-02T07:17:38;99752.06;;;7.15;97.37
17362;BME280;8798;51.938;4.348;2024-03-02T07:20:06;99744.34;;;7.12;97.06
17362;BME280;8798;51.938;4.348;2024-03-02T07:22:34;99753.22;;;7.13;97.35
17362;BME280;8798;51.938;4.348;2024-03-02T07:25:10;99757.56;;;7.14;96.95
17362;BME280;8798;51.938;4.348;2024-03-02T07:27:40;99759.25;;;7.15;96.91
17362;BME280;8798;51.938;4.348;2024-03-02T07:30:13;99760.06;;;7.15;97.33
17362;BME280;8798;51.938;4.348;2024-03-02T07:32:43;99772.41;;;7.16;96.71
17362;BME280;8798;51.938;4.348;2024-03-02T07:35:13;99780.28;;;7.18;97.35
17362;BME280;8798;51.938;4.348;2024-03-02T07:37:41;99775.94;;;7.17;96.80
17362;BME280;8798;51.938;4.348;2024-03-02T07:40:18;99775.28;;;7.15;97.28
17362;BME280;8798;51.938;4.348;2024-03-02T07:42:46;99772.75;;;7.13;97.14
17362;BME280;8798;51.938;4.348;2024-03-02T07:45:17;99759.72;;;7.10;96.47
17362;BME280;8798;51.938;4.348;2024-03-02T07:47:46;99758.84;;;7.09;96.42
17362;BME280;8798;51.938;4.348;2024-03-02T07:50:14;99773.91;;;7.10;96.97
17362;BME280;8798;51.938;4.348;2024-03-02T07:52:42;99774.72;;;7.11;97.25
17362;BME280;8798;51.938;4.348;2024-03-02T07:55:18;99770.53;;;7.08;97.45
17362;BME280;8798;51.938;4.348;2024-03-02T07:57:46;99760.69;;;7.09;96.95
17362;BME280;8798;51.938;4.348;2024-03-02T08:00:14;99774.03;;;7.09;97.17
17362;BME280;8798;51.938;4.348;2024-03-02T08:02:42;99789.09;;;7.10;97.11
17362;BME280;8798;51.938;4.348;2024-03-02T08:05:11;99784.56;;;7.10;96.70
17362;BME280;8798;51.938;4.348;2024-03-02T08:07:39;99795.06;;;7.12;96.34
17362;BME280;8798;51.938;4.348;2024-03-02T08:10:08;99805.63;;;7.14;97.40
17362;BME280;8798;51.938;4.348;2024-03-02T08:12:40;99808.16;;;7.15;97.54
17362;BME280;8798;51.938;4.348;2024-03-02T08:15:08;99824.84;;;7.17;96.64
17362;BME280;8798;51.938;4.348;2024-03-02T08:17:36;99818.66;;;7.17;96.89
17362;BME280;8798;51.938;4.348;2024-03-02T08:20:06;99843.22;;;7.20;96.88
17362;BME280;8798;51.938;4.348;2024-03-02T08:22:35;99850.22;;;7.21;97.09
17362;BME280;8798;51.938;4.348;2024-03-02T08:25:03;99857.94;;;7.24;96.74
17362;BME280;8798;51.938;4.348;2024-03-02T08:27:32;99863.28;;;7.24;96.83
17362;BME280;8798;51.938;4.348;2024-03-02T08:30:02;99879.00;;;7.27;97.15
17362;BME280;8798;51.938;4.348;2024-03-02T08:32:34;99894.72;;;7.30;96.43
17362;BME280;8798;51.938;4.348;2024-03-02T08:35:02;99904.25;;;7.33;97.27
17362;BME280;8798;51.938;4.348;2024-03-02T08:37:31;99917.47;;;7.35;96.76
17362;BME280;8798;51.938;4.348;2024-03-02T08:39:59;99926.16;;;7.37;97.15
17362;BME280;8798;51.938;4.348;2024-03-02T08:42:28;99940.88;;;7.41;96.83
17362;BME280;8798;51.938;4.348;2024-03-02T08:44:56;99951.25;;;7.44;96.67
17362;BME280;8798;51.938;4.348;2024-03-02T08:47:25;99969.69;;;7.47;96.73
17362;BME280;8798;51.938;4.348;2024-03-02T08:49:54;99980.03;;;7.50;97.14
17362;BME280;8798;51.938;4.348;2024-03-02T08:52:27;99982.72;;;7.50;97.06
17362;BME280;8798;51.938;4.348;2024-03-02T08:54:55;99992.41;;;7.51;96.62
17362;BME280;8798;51.938;4.348;2024-03-02T08:57:23;100006.13;;;7.56;96.88
17362;BME280;8798;51.938;4.348;2024-03-02T08:59:51;100020.88;;;7.60;96.76
17362;BME280;8798;51.938;4.348;2024-03-02T09:02:19;100041.94;;;7.63;96.75
17362;BME280;8798;51.938;4.348;2024-03-02T09:04:49;100041.63;;;7.66;96.84
17362;BME280;8798;51.938;4.348;2024-03-02T09:07:18;100066.94;;;7.72;96.98
17362;BME280;8798;51.938;4.348;2024-03-02T09:09:46;100090.69;;;7.75;96.87
17362;BME280;8798;51.938;4.348;2024-03-02T09:12:14;100095.72;;;7.78;97.46
17362;BME280;8798;51.938;4.348;2024-03-02T09:14:42;100124.53;;;7.84;97.29
17362;BME280;8798;51.938;4.348;2024-03-02T09:17:11;100147.00;;;7.91;96.62
17362;BME280;8798;51.938;4.348;2024-03-02T09:19:39;100175.66;;;7.99;97.22
17362;BME280;8798;51.938;4.348;2024-03-02T09:22:08;100199.09;;;8.05;97.08
17362;BME280;8798;51.938;4.348;2024-03-02T09:24:37;100222.41;;;8.13;95.96
17362;BME280;8798;51.938;4.348;2024-03-02T09:27:05;100255.44;;;8.22;97.21
17362;BME280;8798;51.938;4.348;2024-03-02T09:29:33;100289.47;;;8.29;97.19
17362;BME280;8798;51.938;4.348;2024-03-02T09:32:01;100326.03;;;8.38;96.79
17362;BME280;8798;51.938;4.348;2024-03-02T09:34:29;100352.78;;;8.48;96.78
17362;BME280;8798;51.938;4.348;2024-03-02T09:36:58;100385.81;;;8.57;97.03
17362;BME280;8798;51.938;4.348;2024-03-02T09:39:28;100429.59;;;8.66;96.64
17362;BME280;8798;51.938;4.348;2024-03-02T09:41:56;100469.53;;;8.77;96.97
17362;BME280;8798;51.938;4.348;2024-03-02T09:44:26;100521.78;;;8.91;97.02
17362;BME280;8798;51.938;4.348;2024-03-02T09:46:54;100556.56;;;9.00;96.94
17362;BME280;8798;51.938;4.348;2024-03-02T09:49:22;100584.25;;;9.09;96.66
17362;BME280;8798;51.938;4.348;2024-03-02T09:51:50;100621.72;;;9.19;96.78
17362;BME280;8798;51.938;4.348;2024-03-02T09:54:20;100682.75;;;9.35;96.85
17362;BME280;8798;51.938;4.348;2024-03-02T09:56:50;100734.06;;;9.50;96.63
17362;BME280;8798;51.938;4.348;2024-03-02T09:59:18;100757.44;;;9.57;96.75
17362;BME280;8798;51.938;4.348;2024-03-02T10:01:58;100798.31;;;9.69;96.96
17362;BME280;8798;51.938;4.348;2024-03-02T10:04:27;100819.91;;;9.77;96.77
17362;BME280;8798;51.938;4.348;2024-03-02T10:07:12;100863.47;;;9.89;97.07
17362;BME280;8798;51.938;4.348;2024-03-02T10:09:41;100899.84;;;10.01;96.52
17362;BME280;8798;51.938;4.348;2024-03-02T10:12:12;100914.53;;;10.07;96.97
17362;BME280;8798;51.938;4.348;2024-03-02T10:14:42;100945.00;;;10.16;96.64
17362;BME280;8798;51.938;4.348;2024-03-02T10:17:11;100962.22;;;10.23;96.59
17362;BME280;8798;51.938;4.348;2024-03-02T10:19:39;100993.44;;;10.33;97.17
17362;BME280;8798;51.938;4.348;2024-03-02T10:22:08;101013.34;;;10.41;96.79
17362;BME280;8798;51.938;4.348;2024-03-02T10:24:40;101052.63;;;10.51;97.09
17362;BME280;8798;51.938;4.348;2024-03-02T10:27:18;101069.69;;;10.60;96.94
17362;BME280;8798;51.938;4.348;2024-03-02T10:29:47;101109.81;;;10.71;96.68
17362;BME280;8798;51.938;4.348;2024-03-02T10:32:16;101133.97;;;10.81;97.07
17362;BME280;8798;51.938;4.348;2024-03-02T10:34:45;101140.72;;;10.85;96.62
17362;BME280;8798;51.938;4.348;2024-03-02T10:37:15;101122.78;;;10.86;96.53
17362;BME280;8798;51.938;4.348;2024-03-02T10:39:46;101088.28;;;10.81;96.47
17362;BME280;8798;51.938;4.348;2024-03-02T10:42:16;101109.06;;;10.89;96.57
17362;BME280;8798;51.938;4.348;2024-03-02T10:44:48;101152.72;;;11.01;96.59
17362;BME280;8798;51.938;4.348;2024-03-02T10:47:17;101175.03;;;11.11;97.19
17362;BME280;8798;51.938;4.348;2024-03-02T10:49:54;101175.44;;;11.16;97.03
17362;BME280;8798;51.938;4.348;2024-03-02T10:52:26;101154.91;;;11.15;96.60
17362;BME280;8798;51.938;4.348;2024-03-02T10:54:54;101175.00;;;11.21;97.19
17362;BME280;8798;51.938;4.348;2024-03-02T10:57:28;101190.41;;;11.28;97.19
17362;BME280;8798;51.938;4.348;2024-03-02T11:00:04;101190.94;;;11.32;96.55
17362;BME280;8798;51.938;4.348;2024-03-02T11:02:36;101159.81;;;11.29;96.61
17362;BME280;8798;51.938;4.348;2024-03-02T11:05:06;101149.75;;;11.31;96.68
17362;BME280;8798;51.938;4.348;2024-03-02T11:07:38;101115.53;;;11.24;96.79
17362;BME280;8798;51.938;4.348;2024-03-02T11:10:08;101092.34;;;11.23;97.07
17362;BME280;8798;51.938;4.348;2024-03-02T11:12:39;101083.97;;;11.26;96.98
17362;BME280;8798;51.938;4.348;2024-03-02T11:15:16;101049.59;;;11.19;96.87
17362;BME280;8798;51.938;4.348;2024-03-02T11:17:46;101016.94;;;11.14;96.92
17362;BME280;8798;51.938;4.348;2024-03-02T11:20:15;100991.22;;;11.12;96.81
17362;BME280;8798;51.938;4.348;2024-03-02T11:22:48;100974.25;;;11.11;96.93
17362;BME280;8798;51.938;4.348;2024-03-02T11:25:26;100952.88;;;11.10;97.01
17362;BME280;8798;51.938;4.348;2024-03-02T11:28:03;100946.66;;;11.09;96.62
17362;BME280;8798;51.938;4.348;2024-03-02T11:30:51;100941.13;;;11.11;97.11
17362;BME280;8798;51.938;4.348;2024-03-02T11:33:26;100934.44;;;11.15;96.92
17362;BME280;8798;51.938;4.348;2024-03-02T11:36:00;100957.19;;;11.21;96.66
17362;BME280;8798;51.938;4.348;2024-03-02T11:38:30;100984.88;;;11.31;96.84
17362;BME280;8798;51.938;4.348;2024-03-02T11:41:00;101018.91;;;11.40;96.86
17362;BME280;8798;51.938;4.348;2024-03-02T11:43:30;101008.81;;;11.42;96.83
17362;BME280;8798;51.938;4.348;2024-03-02T11:46:00;100980.56;;;11.38;96.58
17362;BME280;8798;51.938;4.348;2024-03-02T11:48:31;100957.50;;;11.35;96.64
17362;BME280;8798;51.938;4.348;2024-03-02T11:51:00;100950.28;;;11.36;96.94
17362;BME280;8798;51.938;4.348;2024-03-02T11:53:28;100962.94;;;11.44;96.89
17362;BME280;8798;51.938;4.348;2024-03-02T11:56:02;100974.94;;;11.49;97.04
17362;BME280;8798;51.938;4.348;2024-03-02T11:58:34;101020.28;;;11.62;96.56
17362;BME280;8798;51.938;4.348;2024-03-02T12:01:04;101078.66;;;11.79;96.87
17362;BME280;8798;51.938;4.348;2024-03-02T12:03:32;101116.25;;;11.89;96.55
17362;BME280;8798;51.938;4.348;2024-03-02T12:06:02;101154.28;;;12.04;96.87
17362;BME280;8798;51.938;4.348;2024-03-02T12:08:31;101187.38;;;12.14;96.75
17362;BME280;8798;51.938;4.348;2024-03-02T12:11:00;101196.81;;;12.18;96.64
17362;BME280;8798;51.938;4.348;2024-03-02T12:13:30;101214.91;;;12.26;96.83
17362;BME280;8798;51.938;4.348;2024-03-02T12:16:01;101213.47;;;12.32;96.53
17362;BME280;8798;51.938;4.348;2024-03-02T12:18:29;101224.63;;;12.37;96.71
17362;BME280;8798;51.938;4.348;2024-03-02T12:20:57;101237.31;;;12.44;96.66
17362;BME280;8798;51.938;4.348;2024-03-02T12:23:26;101271.25;;;12.55;96.67
17362;BME280;8798;51.938;4.348;2024-03-02T12:25:54;101296.28;;;12.65;96.66
17362;BME280;8798;51.938;4.348;2024-03-02T12:28:22;101310.84;;;12.73;96.67
17362;BME280;8798;51.938;4.348;2024-03-02T12:30:50;101328.78;;;12.82;96.34
17362;BME280;8798;51.938;4.348;2024-03-02T12:33:20;101364.63;;;12.92;96.31
17362;BME280;8798;51.938;4.348;2024-03-02T12:35:49;101377.31;;;13.00;96.55
17362;BME280;8798;51.938;4.348;2024-03-02T12:38:17;101371.31;;;13.06;96.56
17362;BME280;8798;51.938;4.348;2024-03-02T12:40:47;101388.88;;;13.10;96.54
17362;BME280;8798;51.938;4.348;2024-03-02T12:43:16;101369.84;;;13.11;96.47
17362;BME280;8798;51.938;4.348;2024-03-02T12:45:44;101350.81;;;13.13;96.52
17362;BME280;8798;51.938;4.348;2024-03-02T12:48:13;101338.31;;;13.12;96.37
17362;BME280;8798;51.938;4.348;2024-03-02T12:50:43;101294.09;;;13.05;96.49
17362;BME280;8798;51.938;4.348;2024-03-02T12:53:14;101235.88;;;12.94;96.46
17362;BME280;8798;51.938;4.348;2024-03-02T12:55:44;101208.72;;;12.96;96.76
17362;BME280;8798;51.938;4.348;2024-03-02T12:58:17;101174.19;;;12.91;96.67
17362;BME280;8798;51.938;4.348;2024-03-02T13:00:45;101128.28;;;12.83;96.87
17362;BME280;8798;51.938;4.348;2024-03-02T13:03:14;101067.41;;;12.72;96.66
17362;BME280;8798;51.938;4.348;2024-03-02T13:05:48;101034.38;;;12.70;96.90
17362;BME280;8798;51.938;4.348;2024-03-02T13:08:16;101023.59;;;12.70;96.53
17362;BME280;8798;51.938;4.348;2024-03-02T13:10:44;101010.44;;;12.67;96.62
17362;BME280;8798;51.938;4.348;2024-03-02T13:13:13;100975.53;;;12.65;96.56
17362;BME280;8798;51.938;4.348;2024-03-02T13:15:41;100980.63;;;12.68;96.09
17362;BME280;8798;51.938;4.348;2024-03-02T13:18:10;101004.91;;;12.77;96.73
17362;BME280;8798;51.938;4.348;2024-03-02T13:20:40;101025.53;;;12.86;96.24
17362;BME280;8798;51.938;4.348;2024-03-02T13:23:09;101027.03;;;12.88;96.23
17362;BME280;8798;51.938;4.348;2024-03-02T13:25:37;101016.06;;;12.90;96.41
17362;BME280;8798;51.938;4.348;2024-03-02T13:28:06;101032.47;;;12.97;96.11